sensor_id;sensor_type;location;lat;lon;timestamp;pressure;altitude;pressure_sealevel;temperature;humidity
54978;BME280;40873;47.522;19.106;2023-07-31T00:01:22;99986.88;;;19.05;100.00
54978;BME280;40873;47.522;19.106;2023-07-31T00:03:49;99989.41;;;19.06;100.00
54978;BME280;40873;47.522;19.106;2023-07-31T00:06:16;99983.91;;;19.08;100.00
54978;BME280;40873;47.522;19.106;2023-07-31T00:08:43;99986.03;;;19.04;100.00
54978;BME280;40873;47.522;19.106;2023-07-31T00:11:10;99991.53;;;19.03;100.00
54978;BME280;40873;47.522;19.106;2023-07-31T00:13:37;99991.53;;;19.03;100.00
54978;BME280;40873;47.522;19.106;2023-07-31T00:16:04;99995.88;;;19.04;100.00
54978;BME280;40873;47.522;19.106;2023-07-31T00:18:31;99990.69;;;19.02;100.00
54978;BME280;40873;47.522;19.106;2023-07-31T00:20:58;99992.69;;;19.00;100.00
54978;BME280;40873;47.522;19.106;2023-07-31T00:23:25;99998.88;;;19.01;100.00
54978;BME280;40873;47.522;19.106;2023-07-31T00:25:52;99997.03;;;19.01;100.00
54978;BME280;40873;47.522;19.106;2023-07-31T00:28:19;99993.38;;;19.02;100.00
54978;BME280;40873;47.522;19.106;2023-07-31T00:30:46;99992.00;;;18.98;100.00
54978;BME280;40873;47.522;19.106;2023-07-31T00:33:13;99996.00;;;18.94;100.00
54978;BME280;40873;47.522;19.106;2023-07-31T00:35:40;99993.59;;;18.91;100.00
54978;BME280;40873;47.522;19.106;2023-07-31T00:38:07;99986.59;;;18.90;100.00
54978;BME280;40873;47.522;19.106;2023-07-31T00:40:35;99996.28;;;18.91;100.00
54978;BME280;40873;47.522;19.106;2023-07-31T00:43:03;100002.13;;;18.86;100.00
54978;BME280;40873;47.522;19.106;2023-07-31T00:45:31;100000.44;;;18.85;100.00
54978;BME280;40873;47.522;19.106;2023-07-31T00:47:58;100010.50;;;18.92;100.00
54978;BME280;40873;47.522;19.106;2023-07-31T00:50:26;100011.66;;;18.89;100.00
54978;BME280;40873;47.522;19.106;2023-07-31T00:52:53;100008.59;;;18.84;100.00
54978;BME280;40873;47.522;19.106;2023-07-31T00:55:21;100006.28;;;18.89;100.00
54978;BME280;40873;47.522;19.106;2023-07-31T00:57:49;100003.47;;;18.90;100.00
54978;BME280;40873;47.522;19.106;2023-07-31T01:00:17;100006.28;;;18.89;100.00
54978;BME280;40873;47.522;19.106;2023-07-31T01:02:44;100007.47;;;18.86;100.00
54978;BME280;40873;47.522;19.106;2023-07-31T01:05:11;100013.09;;;18.83;100.00
54978;BME280;40873;47.522;19.106;2023-07-31T01:08:03;100002.72;;;18.80;100.00
54978;BME280;40873;47.522;19.106;2023-07-31T01:10:38;100001.03;;;18.79;100.00
54978;BME280;40873;47.522;19.106;2023-07-31T01:13:09;99997.81;;;18.76;100.00
54978;BME280;40873;47.522;19.106;2023-07-31T01:15:37;100005.84;;;18.76;100.00
54978;BME280;40873;47.522;19.106;2023-07-31T01:18:05;100005.63;;;18.69;100.00
54978;BME280;40873;47.522;19.106;2023-07-31T01:20:33;100003.09;;;18.68;100.00
54978;BME280;40873;47.522;19.106;2023-07-31T01:23:22;100014.38;;;18.61;100.00
54978;BME280;40873;47.522;19.106;2023-07-31T01:26:16;100012.16;;;18.57;100.00
54978;BME280;40873;47.522;19.106;2023-07-31T01:31:18;100017.78;;;18.54;100.00
54978;BME280;40873;47.522;19.106;2023-07-31T01:33:46;100020.06;;;18.49;100.00
54978;BME280;40873;47.522;19.106;2023-07-31T01:36:15;100017.88;;;18.44;100.00
54978;BME280;40873;47.522;19.106;2023-07-31T01:38:42;100018.72;;;18.45;100.00
54978;BME280;40873;47.522;19.106;2023-07-31T01:41:09;100016.88;;;18.45;100.00
54978;BME280;40873;47.522;19.106;2023-07-31T01:43:36;100020.41;;;18.46;100.00
54978;BME280;40873;47.522;19.106;2023-07-31T01:46:03;100013.22;;;18.46;100.00
54978;BME280;40873;47.522;19.106;2023-07-31T01:48:30;100019.00;;;18.42;100.00
54978;BME280;40873;47.522;19.106;2023-07-31T01:51:02;100019.16;;;18.40;100.00
54978;BME280;40873;47.522;19.106;2023-07-31T01:53:31;100014.66;;;18.41;100.00
54978;BME280;40873;47.522;19.106;2023-07-31T01:55:58;100007.63;;;18.40;100.00
54978;BME280;40873;47.522;19.106;2023-07-31T01:58:25;100002.75;;;18.35;100.00
54978;BME280;40873;47.522;19.106;2023-07-31T02:00:52;100003.28;;;18.39;100.00
54978;BME280;40873;47.522;19.106;2023-07-31T02:03:19;100002.75;;;18.35;100.00
54978;BME280;40873;47.522;19.106;2023-07-31T02:05:47;100004.56;;;18.34;100.00
54978;BME280;40873;47.522;19.106;2023-07-31T02:08:15;100002.91;;;18.33;100.00
54978;BME280;40873;47.522;19.106;2023-07-31T02:10:43;99998.56;;;18.32;100.00
54978;BME280;40873;47.522;19.106;2023-07-31T02:13:10;100000.53;;;18.30;100.00
54978;BME280;40873;47.522;19.106;2023-07-31T02:15:37;99998.16;;;18.27;100.00
54978;BME280;40873;47.522;19.106;2023-07-31T02:18:04;99998.47;;;18.24;100.00
54978;BME280;40873;47.522;19.106;2023-07-31T02:20:35;99998.75;;;18.21;100.00
54978;BME280;40873;47.522;19.106;2023-07-31T02:23:02;99998.75;;;18.21;100.00
54978;BME280;40873;47.522;19.106;2023-07-31T02:25:29;100007.91;;;18.19;100.00
54978;BME280;40873;47.522;19.106;2023-07-31T02:27:56;100015.25;;;18.17;100.00
54978;BME280;40873;47.522;19.106;2023-07-31T02:30:23;100007.66;;;18.12;100.00
54978;BME280;40873;47.522;19.106;2023-07-31T02:32:50;100007.66;;;18.12;100.00
54978;BME280;40873;47.522;19.106;2023-07-31T02:35:17;100010.09;;;18.05;100.00
54978;BME280;40873;47.522;19.106;2023-07-31T02:37:45;100010.53;;;18.01;100.00
54978;BME280;40873;47.522;19.106;2023-07-31T02:40:12;100021.50;;;17.98;100.00
54978;BME280;40873;47.522;19.106;2023-07-31T02:42:39;100017.84;;;17.99;100.00
54978;BME280;40873;47.522;19.106;2023-07-31T02:45:07;100016.84;;;18.00;100.00
54978;BME280;40873;47.522;19.106;2023-07-31T02:47:34;100009.69;;;18.00;100.00
54978;BME280;40873;47.522;19.106;2023-07-31T02:50:02;100007.19;;;17.99;100.00
54978;BME280;40873;47.522;19.106;2023-07-31T02:52:30;100010.69;;;17.99;100.00
54978;BME280;40873;47.522;19.106;2023-07-31T02:54:57;100017.84;;;17.99;100.00
54978;BME280;40873;47.522;19.106;2023-07-31T02:57:24;100025.03;;;17.98;100.00
54978;BME280;40873;47.522;19.106;2023-07-31T02:59:52;100026.84;;;17.98;100.00
54978;BME280;40873;47.522;19.106;2023-07-31T03:02:18;100035.16;;;17.95;100.00
54978;BME280;40873;47.522;19.106;2023-07-31T03:04:46;100025.84;;;17.99;100.00
54978;BME280;40873;47.522;19.106;2023-07-31T03:07:13;100029.09;;;18.02;100.00
54978;BME280;40873;47.522;19.106;2023-07-31T03:09:40;100036.84;;;17.96;100.00
54978;BME280;40873;47.522;19.106;2023-07-31T03:12:07;100038.13;;;17.92;100.00
54978;BME280;40873;47.522;19.106;2023-07-31T03:14:35;100038.25;;;17.90;100.00
54978;BME280;40873;47.522;19.106;2023-07-31T03:17:02;100049.47;;;17.94;100.00
54978;BME280;40873;47.522;19.106;2023-07-31T03:19:31;100037.13;;;17.93;100.00
54978;BME280;40873;47.522;19.106;2023-07-31T03:21:59;100042.09;;;17.88;100.00
54978;BME280;40873;47.522;19.106;2023-07-31T03:24:28;100043.03;;;17.87;100.00
54978;BME280;40873;47.522;19.106;2023-07-31T03:26:55;100044.03;;;17.86;100.00
54978;BME280;40873;47.522;19.106;2023-07-31T03:29:22;100037.84;;;17.85;100.00
54978;BME280;40873;47.522;19.106;2023-07-31T03:31:50;100038.16;;;17.82;100.00
54978;BME280;40873;47.522;19.106;2023-07-31T03:34:17;100046.31;;;17.80;100.00
54978;BME280;40873;47.522;19.106;2023-07-31T03:36:44;100044.50;;;17.81;100.00
54978;BME280;40873;47.522;19.106;2023-07-31T03:39:11;100042.91;;;17.88;100.00
54978;BME280;40873;47.522;19.106;2023-07-31T03:41:38;100048.53;;;17.85;100.00
54978;BME280;40873;47.522;19.106;2023-07-31T03:44:05;100047.69;;;17.85;100.00
54978;BME280;40873;47.522;19.106;2023-07-31T03:46:32;100044.59;;;17.89;100.00
54978;BME280;40873;47.522;19.106;2023-07-31T03:49:00;100044.28;;;17.92;100.00
54978;BME280;40873;47.522;19.106;2023-07-31T03:51:27;100048.50;;;17.95;100.00
54978;BME280;40873;47.522;19.106;2023-07-31T03:53:54;100059.56;;;18.00;100.00
54978;BME280;40873;47.522;19.106;2023-07-31T03:56:21;100060.81;;;18.05;100.00
54978;BME280;40873;47.522;19.106;2023-07-31T03:58:49;100062.88;;;18.12;100.00
54978;BME280;40873;47.522;19.106;2023-07-31T04:01:16;100059.91;;;18.15;100.00
54978;BME280;40873;47.522;19.106;2023-07-31T04:03:43;100055.44;;;18.15;100.00
54978;BME280;40873;47.522;19.106;2023-07-31T04:06:10;100057.66;;;18.20;100.00
54978;BME280;40873;47.522;19.106;2023-07-31T04:08:37;100050.78;;;18.17;100.00
54978;BME280;40873;47.522;19.106;2023-07-31T04:11:04;100055.53;;;18.23;100.00
54978;BME280;40873;47.522;19.106;2023-07-31T04:13:31;100051.44;;;18.29;100.00
54978;BME280;40873;47.522;19.106;2023-07-31T04:15:58;100055.47;;;18.33;100.00
54978;BME280;40873;47.522;19.106;2023-07-31T04:18:25;100055.72;;;18.40;100.00
54978;BME280;40873;47.522;19.106;2023-07-31T04:20:52;100047.19;;;18.36;100.00
54978;BME280;40873;47.522;19.106;2023-07-31T04:23:20;100051.81;;;18.34;100.00
54978;BME280;40873;47.522;19.106;2023-07-31T04:25:46;100059.53;;;18.37;100.00
54978;BME280;40873;47.522;19.106;2023-07-31T04:28:14;100065.00;;;18.35;100.00
54978;BME280;40873;47.522;19.106;2023-07-31T04:30:41;100058.81;;;18.35;100.00
54978;BME280;40873;47.522;19.106;2023-07-31T04:33:08;100054.47;;;18.34;100.00
54978;BME280;40873;47.522;19.106;2023-07-31T04:35:35;100051.56;;;18.27;100.00
54978;BME280;40873;47.522;19.106;2023-07-31T04:38:02;100055.78;;;18.30;100.00
54978;BME280;40873;47.522;19.106;2023-07-31T04:40:29;100051.53;;;18.37;100.00
54978;BME280;40873;47.522;19.106;2023-07-31T04:42:56;100057.53;;;18.39;100.00
54978;BME280;40873;47.522;19.106;2023-07-31T04:45:23;100054.19;;;18.37;100.00
54978;BME280;40873;47.522;19.106;2023-07-31T04:47:50;100056.03;;;18.37;100.00
54978;BME280;40873;47.522;19.106;2023-07-31T04:50:17;100064.72;;;18.39;100.00
54978;BME280;40873;47.522;19.106;2023-07-31T04:52:44;100065.38;;;18.50;100.00
54978;BME280;40873;47.522;19.106;2023-07-31T04:55:11;100072.91;;;18.55;100.00
54978;BME280;40873;47.522;19.106;2023-07-31T04:57:38;100075.06;;;18.51;100.00
54978;BME280;40873;47.522;19.106;2023-07-31T05:00:06;100076.03;;;18.50;100.00
54978;BME280;40873;47.522;19.106;2023-07-31T05:02:33;100078.56;;;18.52;100.00
54978;BME280;40873;47.522;19.106;2023-07-31T05:05:00;100080.16;;;18.45;100.00
54978;BME280;40873;47.522;19.106;2023-07-31T05:07:27;100077.00;;;18.49;100.00
54978;BME280;40873;47.522;19.106;2023-07-31T05:09:55;100074.06;;;18.52;100.00
54978;BME280;40873;47.522;19.106;2023-07-31T05:12:24;100076.03;;;18.50;100.00
54978;BME280;40873;47.522;19.106;2023-07-31T05:14:51;100082.06;;;18.52;100.00
54978;BME280;40873;47.522;19.106;2023-07-31T05:17:18;100096.69;;;18.48;100.00
54978;BME280;40873;47.522;19.106;2023-07-31T05:19:45;100091.59;;;18.55;100.00
54978;BME280;40873;47.522;19.106;2023-07-31T05:22:12;100090.31;;;18.59;100.00
54978;BME280;40873;47.522;19.106;2023-07-31T05:24:39;100092.28;;;18.67;100.00
54978;BME280;40873;47.522;19.106;2023-07-31T05:27:06;100095.19;;;18.73;100.00
54978;BME280;40873;47.522;19.106;2023-07-31T05:29:33;100093.88;;;18.77;100.00
54978;BME280;40873;47.522;19.106;2023-07-31T05:32:00;100100.94;;;18.78;100.00
54978;BME280;40873;47.522;19.106;2023-07-31T05:34:27;100090.00;;;18.72;100.00
54978;BME280;40873;47.522;19.106;2023-07-31T05:36:54;100096.69;;;18.76;100.00
54978;BME280;40873;47.522;19.106;2023-07-31T05:39:21;100089.31;;;18.87;100.00
54978;BME280;40873;47.522;19.106;2023-07-31T05:41:48;100100.88;;;19.06;100.00
54978;BME280;40873;47.522;19.106;2023-07-31T05:44:15;100089.91;;;19.17;100.00
54978;BME280;40873;47.522;19.106;2023-07-31T05:46:42;100094.88;;;19.12;100.00
54978;BME280;40873;47.522;19.106;2023-07-31T05:49:09;100094.03;;;19.11;100.00
54978;BME280;40873;47.522;19.106;2023-07-31T05:51:37;100105.97;;;19.17;100.00
54978;BME280;40873;47.522;19.106;2023-07-31T05:54:04;100109.25;;;19.29;100.00
54978;BME280;40873;47.522;19.106;2023-07-31T05:56:31;100106.31;;;19.40;100.00
54978;BME280;40873;47.522;19.106;2023-07-31T05:59:00;100111.59;;;19.50;100.00
54978;BME280;40873;47.522;19.106;2023-07-31T06:01:27;100116.56;;;19.62;100.00
54978;BME280;40873;47.522;19.106;2023-07-31T06:03:54;100112.06;;;19.63;100.00
54978;BME280;40873;47.522;19.106;2023-07-31T06:06:21;100121.22;;;19.60;100.00
54978;BME280;40873;47.522;19.106;2023-07-31T06:08:48;100121.44;;;19.67;100.00
54978;BME280;40873;47.522;19.106;2023-07-31T06:11:16;100113.66;;;19.82;99.94
54978;BME280;40873;47.522;19.106;2023-07-31T06:13:43;100115.50;;;19.81;98.98
54978;BME280;40873;47.522;19.106;2023-07-31T06:16:11;100120.13;;;19.71;98.40
54978;BME280;40873;47.522;19.106;2023-07-31T06:18:38;100104.91;;;19.54;99.21
54978;BME280;40873;47.522;19.106;2023-07-31T06:21:05;100121.28;;;19.51;98.89
54978;BME280;40873;47.522;19.106;2023-07-31T06:23:33;100114.47;;;19.56;98.42
54978;BME280;40873;47.522;19.106;2023-07-31T06:26:00;100115.41;;;19.65;98.25
54978;BME280;40873;47.522;19.106;2023-07-31T06:28:28;100118.09;;;19.65;97.22
54978;BME280;40873;47.522;19.106;2023-07-31T06:30:59;100116.28;;;19.74;97.83
54978;BME280;40873;47.522;19.106;2023-07-31T06:33:27;100115.50;;;19.81;95.51
54978;BME280;40873;47.522;19.106;2023-07-31T06:35:54;100105.16;;;19.86;95.84
54978;BME280;40873;47.522;19.106;2023-07-31T06:38:24;100113.28;;;20.03;96.66
54978;BME280;40873;47.522;19.106;2023-07-31T06:40:52;100109.06;;;20.26;95.32
54978;BME280;40873;47.522;19.106;2023-07-31T06:43:19;100101.34;;;20.23;94.21
54978;BME280;40873;47.522;19.106;2023-07-31T06:45:46;100114.59;;;20.24;94.79
54978;BME280;40873;47.522;19.106;2023-07-31T06:48:15;100111.13;;;20.40;94.04
54978;BME280;40873;47.522;19.106;2023-07-31T06:50:42;100110.03;;;20.51;95.25
54978;BME280;40873;47.522;19.106;2023-07-31T06:53:09;100119.56;;;20.45;91.75
54978;BME280;40873;47.522;19.106;2023-07-31T06:55:36;100117.13;;;20.34;92.97
54978;BME280;40873;47.522;19.106;2023-07-31T06:58:03;100115.22;;;20.18;93.13
54978;BME280;40873;47.522;19.106;2023-07-31T07:00:31;100129.25;;;20.12;93.58
54978;BME280;40873;47.522;19.106;2023-07-31T07:02:58;100114.19;;;20.11;94.42
54978;BME280;40873;47.522;19.106;2023-07-31T07:05:26;100120.69;;;20.09;93.45
54978;BME280;40873;47.522;19.106;2023-07-31T07:07:53;100116.50;;;20.06;94.35
54978;BME280;40873;47.522;19.106;2023-07-31T07:10:20;100121.06;;;20.14;94.55
54978;BME280;40873;47.522;19.106;2023-07-31T07:12:47;100123.28;;;20.18;94.94
54978;BME280;40873;47.522;19.106;2023-07-31T07:15:15;100119.88;;;20.16;96.36
54978;BME280;40873;47.522;19.106;2023-07-31T07:17:41;100125.59;;;20.21;94.93
54978;BME280;40873;47.522;19.106;2023-07-31T07:20:09;100126.44;;;20.22;95.25
54978;BME280;40873;47.522;19.106;2023-07-31T07:22:36;100133.53;;;20.31;93.68
54978;BME280;40873;47.522;19.106;2023-07-31T07:25:04;100131.38;;;20.35;93.33
54978;BME280;40873;47.522;19.106;2023-07-31T07:27:31;100137.31;;;20.46;92.92
54978;BME280;40873;47.522;19.106;2023-07-31T07:29:58;100130.97;;;20.56;94.05
54978;BME280;40873;47.522;19.106;2023-07-31T07:32:25;100126.00;;;20.69;89.69
54978;BME280;40873;47.522;19.106;2023-07-31T07:34:52;100127.56;;;20.88;90.16
54978;BME280;40873;47.522;19.106;2023-07-31T07:37:19;100128.59;;;20.95;87.63
54978;BME280;40873;47.522;19.106;2023-07-31T07:39:46;100126.56;;;20.97;88.84
54978;BME280;40873;47.522;19.106;2023-07-31T07:42:13;100129.78;;;21.00;87.04
54978;BME280;40873;47.522;19.106;2023-07-31T07:44:40;100131.44;;;21.01;86.92
54978;BME280;40873;47.522;19.106;2023-07-31T07:47:07;100131.81;;;21.15;85.01
54978;BME280;40873;47.522;19.106;2023-07-31T07:49:35;100130.84;;;21.32;85.40
54978;BME280;40873;47.522;19.106;2023-07-31T07:52:03;100137.22;;;21.39;82.47
54978;BME280;40873;47.522;19.106;2023-07-31T07:54:30;100132.34;;;21.43;81.23
54978;BME280;40873;47.522;19.106;2023-07-31T07:56:57;100135.16;;;21.17;78.47
54978;BME280;40873;47.522;19.106;2023-07-31T07:59:25;100130.44;;;21.11;80.93
54978;BME280;40873;47.522;19.106;2023-07-31T08:01:51;100132.94;;;21.04;80.50
54978;BME280;40873;47.522;19.106;2023-07-31T08:04:19;100125.72;;;20.88;81.87
54978;BME280;40873;47.522;19.106;2023-07-31T08:06:46;100135.25;;;20.74;79.62
54978;BME280;40873;47.522;19.106;2023-07-31T08:09:13;100136.56;;;20.70;80.13
54978;BME280;40873;47.522;19.106;2023-07-31T08:11:40;100133.25;;;20.85;79.58
54978;BME280;40873;47.522;19.106;2023-07-31T08:14:07;100122.94;;;21.14;77.98
54978;BME280;40873;47.522;19.106;2023-07-31T08:16:34;100129.34;;;21.38;74.38
54978;BME280;40873;47.522;19.106;2023-07-31T08:19:01;100122.78;;;21.48;74.56
54978;BME280;40873;47.522;19.106;2023-07-31T08:21:28;100127.78;;;21.68;73.81
54978;BME280;40873;47.522;19.106;2023-07-31T08:23:56;100120.72;;;21.83;74.83
54978;BME280;40873;47.522;19.106;2023-07-31T08:26:23;100120.53;;;22.01;75.17
54978;BME280;40873;47.522;19.106;2023-07-31T08:28:50;100120.16;;;22.20;71.50
54978;BME280;40873;47.522;19.106;2023-07-31T08:31:18;100118.09;;;22.30;67.14
54978;BME280;40873;47.522;19.106;2023-07-31T08:33:45;100114.22;;;22.41;67.79
54978;BME280;40873;47.522;19.106;2023-07-31T08:36:12;100122.56;;;22.54;68.83
54978;BME280;40873;47.522;19.106;2023-07-31T08:38:39;100113.28;;;22.57;66.04
54978;BME280;40873;47.522;19.106;2023-07-31T08:41:06;100116.63;;;22.67;67.09
54978;BME280;40873;47.522;19.106;2023-07-31T08:43:34;100115.53;;;22.76;68.23
54978;BME280;40873;47.522;19.106;2023-07-31T08:46:03;100121.25;;;22.81;68.35
54978;BME280;40873;47.522;19.106;2023-07-31T08:48:31;100110.47;;;22.81;69.14
54978;BME280;40873;47.522;19.106;2023-07-31T08:50:58;100106.41;;;22.85;68.06
54978;BME280;40873;47.522;19.106;2023-07-31T08:53:26;100099.63;;;22.97;67.20
54978;BME280;40873;47.522;19.106;2023-07-31T08:55:53;100113.03;;;23.06;65.51
54978;BME280;40873;47.522;19.106;2023-07-31T08:58:23;100113.09;;;22.97;65.47
54978;BME280;40873;47.522;19.106;2023-07-31T09:00:51;100102.06;;;23.07;63.59
54978;BME280;40873;47.522;19.106;2023-07-31T09:03:22;100103.63;;;23.02;63.82
54978;BME280;40873;47.522;19.106;2023-07-31T09:05:50;100101.06;;;23.08;64.22
54978;BME280;40873;47.522;19.106;2023-07-31T09:08:19;100106.41;;;23.16;63.57
54978;BME280;40873;47.522;19.106;2023-07-31T09:10:47;100096.09;;;23.20;62.10
54978;BME280;40873;47.522;19.106;2023-07-31T09:13:15;100100.22;;;23.31;61.94
54978;BME280;40873;47.522;19.106;2023-07-31T09:15:45;100098.00;;;23.34;61.41
54978;BME280;40873;47.522;19.106;2023-07-31T09:18:13;100096.03;;;23.51;59.15
54978;BME280;40873;47.522;19.106;2023-07-31T09:20:45;100100.00;;;23.55;62.57
54978;BME280;40873;47.522;19.106;2023-07-31T09:23:14;100106.22;;;23.78;61.05
54978;BME280;40873;47.522;19.106;2023-07-31T09:25:45;100089.97;;;23.87;62.32
54978;BME280;40873;47.522;19.106;2023-07-31T09:28:13;100094.88;;;23.98;62.59
54978;BME280;40873;47.522;19.106;2023-07-31T09:30:48;100089.22;;;24.22;62.38
54978;BME280;40873;47.522;19.106;2023-07-31T09:33:16;100093.69;;;24.00;59.90
54978;BME280;40873;47.522;19.106;2023-07-31T09:35:44;100091.09;;;23.92;59.33
54978;BME280;40873;47.522;19.106;2023-07-31T09:38:15;100100.16;;;23.91;58.46
54978;BME280;40873;47.522;19.106;2023-07-31T09:40:44;100090.50;;;23.82;60.15
54978;BME280;40873;47.522;19.106;2023-07-31T09:43:22;100091.72;;;24.09;58.06
54978;BME280;40873;47.522;19.106;2023-07-31T09:45:55;100087.56;;;24.06;57.11
54978;BME280;40873;47.522;19.106;2023-07-31T09:48:23;100087.72;;;23.90;56.81
54978;BME280;40873;47.522;19.106;2023-07-31T09:50:53;100096.53;;;23.99;56.86
54978;BME280;40873;47.522;19.106;2023-07-31T09:53:28;100095.06;;;24.11;57.01
54978;BME280;40873;47.522;19.106;2023-07-31T09:55:58;100086.78;;;23.98;57.30
54978;BME280;40873;47.522;19.106;2023-07-31T09:58:28;100088.09;;;24.17;57.20
54978;BME280;40873;47.522;19.106;2023-07-31T10:00:57;100085.22;;;24.33;56.96
54978;BME280;40873;47.522;19.106;2023-07-31T10:03:25;100089.66;;;24.55;58.26
54978;BME280;40873;47.522;19.106;2023-07-31T10:05:55;100088.47;;;24.79;56.31
54978;BME280;40873;47.522;19.106;2023-07-31T10:08:28;100090.91;;;25.10;56.74
54978;BME280;40873;47.522;19.106;2023-07-31T10:10:59;100102.59;;;24.81;54.77
54978;BME280;40873;47.522;19.106;2023-07-31T10:13:27;100100.72;;;24.97;55.62
54978;BME280;40873;47.522;19.106;2023-07-31T10:15:58;100086.28;;;25.04;54.50
54978;BME280;40873;47.522;19.106;2023-07-31T10:18:26;100086.22;;;25.19;53.53
54978;BME280;40873;47.522;19.106;2023-07-31T10:20:54;100087.94;;;25.76;54.62
54978;BME280;40873;47.522;19.106;2023-07-31T10:23:23;100091.25;;;26.06;52.41
54978;BME280;40873;47.522;19.106;2023-07-31T10:25:53;100088.03;;;25.89;49.06
54978;BME280;40873;47.522;19.106;2023-07-31T10:28:24;100083.81;;;25.52;49.43
54978;BME280;40873;47.522;19.106;2023-07-31T10:30:51;100084.88;;;25.86;49.78
54978;BME280;40873;47.522;19.106;2023-07-31T10:33:20;100087.34;;;25.53;49.89
54978;BME280;40873;47.522;19.106;2023-07-31T10:35:47;100079.28;;;25.31;50.92
54978;BME280;40873;47.522;19.106;2023-07-31T10:38:15;100075.00;;;25.43;51.72
54978;BME280;40873;47.522;19.106;2023-07-31T10:40:42;100078.41;;;25.52;50.86
54978;BME280;40873;47.522;19.106;2023-07-31T10:43:23;100085.25;;;25.55;51.39
54978;BME280;40873;47.522;19.106;2023-07-31T10:45:51;100068.44;;;25.53;52.02
54978;BME280;40873;47.522;19.106;2023-07-31T10:48:19;100073.47;;;25.62;51.28
54978;BME280;40873;47.522;19.106;2023-07-31T10:50:55;100072.16;;;25.73;52.42
54978;BME280;40873;47.522;19.106;2023-07-31T10:53:29;100058.44;;;25.75;51.63
54978;BME280;40873;47.522;19.106;2023-07-31T10:56:06;100061.09;;;26.03;51.29
54978;BME280;40873;47.522;19.106;2023-07-31T10:58:34;100056.78;;;26.15;50.44
54978;BME280;40873;47.522;19.106;2023-07-31T11:01:05;100058.63;;;26.62;50.64
54978;BME280;40873;47.522;19.106;2023-07-31T11:03:45;100066.78;;;26.69;49.05
54978;BME280;40873;47.522;19.106;2023-07-31T11:06:13;100067.63;;;26.83;49.78
54978;BME280;40873;47.522;19.106;2023-07-31T11:08:46;100060.91;;;26.52;47.40
54978;BME280;40873;47.522;19.106;2023-07-31T11:11:15;100055.72;;;26.57;50.26
54978;BME280;40873;47.522;19.106;2023-07-31T11:13:48;100047.94;;;27.09;48.75
54978;BME280;40873;47.522;19.106;2023-07-31T11:16:24;100058.56;;;27.23;45.88
54978;BME280;40873;47.522;19.106;2023-07-31T11:18:52;100051.66;;;27.01;44.67
54978;BME280;40873;47.522;19.106;2023-07-31T11:21:23;100036.47;;;27.46;47.01
54978;BME280;40873;47.522;19.106;2023-07-31T11:23:58;100036.28;;;27.08;45.27
54978;BME280;40873;47.522;19.106;2023-07-31T11:26:25;100030.66;;;27.43;46.60
54978;BME280;40873;47.522;19.106;2023-07-31T11:28:52;100031.25;;;27.18;43.91
54978;BME280;40873;47.522;19.106;2023-07-31T11:31:19;100039.00;;;27.28;44.92
54978;BME280;40873;47.522;19.106;2023-07-31T11:33:47;100032.75;;;27.34;43.28
54978;BME280;40873;47.522;19.106;2023-07-31T11:36:19;100031.84;;;27.60;44.65
54978;BME280;40873;47.522;19.106;2023-07-31T11:38:46;100034.78;;;27.58;43.70
54978;BME280;40873;47.522;19.106;2023-07-31T11:41:15;100037.91;;;27.62;42.57
54978;BME280;40873;47.522;19.106;2023-07-31T11:43:45;100033.09;;;27.91;42.99
54978;BME280;40873;47.522;19.106;2023-07-31T11:46:13;100032.75;;;28.25;44.30
54978;BME280;40873;47.522;19.106;2023-07-31T11:48:42;100038.16;;;28.38;41.87
54978;BME280;40873;47.522;19.106;2023-07-31T11:51:12;100035.09;;;28.08;41.08
54978;BME280;40873;47.522;19.106;2023-07-31T11:53:53;100029.97;;;27.80;41.96
54978;BME280;40873;47.522;19.106;2023-07-31T11:56:23;100032.75;;;27.21;43.68
54978;BME280;40873;47.522;19.106;2023-07-31T11:58:59;100023.97;;;27.19;42.90
54978;BME280;40873;47.522;19.106;2023-07-31T12:01:29;100028.31;;;27.73;43.54
54978;BME280;40873;47.522;19.106;2023-07-31T12:03:57;100016.81;;;27.91;42.33
54978;BME280;40873;47.522;19.106;2023-07-31T12:06:37;100024.09;;;27.97;44.86
54978;BME280;40873;47.522;19.106;2023-07-31T12:09:05;100016.88;;;28.22;42.88
54978;BME280;40873;47.522;19.106;2023-07-31T12:11:46;100008.56;;;28.30;41.07
54978;BME280;40873;47.522;19.106;2023-07-31T12:14:41;100018.56;;;28.68;41.46
54978;BME280;40873;47.522;19.106;2023-07-31T12:17:08;100010.00;;;28.26;41.12
54978;BME280;40873;47.522;19.106;2023-07-31T12:19:36;100003.38;;;28.09;41.67
54978;BME280;40873;47.522;19.106;2023-07-31T12:22:12;100005.63;;;28.32;41.79
54978;BME280;40873;47.522;19.106;2023-07-31T12:24:41;99997.72;;;28.24;42.29
54978;BME280;40873;47.522;19.106;2023-07-31T12:27:13;100000.53;;;28.42;42.57
54978;BME280;40873;47.522;19.106;2023-07-31T12:29:41;99996.97;;;28.80;40.16
54978;BME280;40873;47.522;19.106;2023-07-31T12:32:23;99995.78;;;28.69;40.15
54978;BME280;40873;47.522;19.106;2023-07-31T12:34:52;100003.56;;;28.65;40.32
54978;BME280;40873;47.522;19.106;2023-07-31T12:37:20;99989.44;;;28.50;41.11
54978;BME280;40873;47.522;19.106;2023-07-31T12:39:48;99992.09;;;28.95;41.00
54978;BME280;40873;47.522;19.106;2023-07-31T12:42:17;99994.75;;;29.02;39.86
54978;BME280;40873;47.522;19.106;2023-07-31T12:44:44;99979.19;;;28.84;40.09